Time;durP1;ratioP1;P1;durP2;ratioP2;P2;SDS_P1;SDS_P2;PMS_P1;PMS_P2;Temp;Humidity;BMP_temperature;BMP_pressure;BME280_temperature;BME280_humidity;BME280_pressure;Samples;Min_cycle;Max_cycle;Signal;HPM_P1;HPM_P2
2023/11/16 00:02:21;;;;;;;2.53;1.60;;;;;;;3.69;93.83;101289.00;5098866;28;20028;-69
2023/11/16 00:04:48;;;;;;;2.10;1.77;;;;;;;3.82;92.30;101291.34;5101767;28;20024;-69
2023/11/16 00:07:14;;;;;;;2.20;1.60;;;;;;;4.02;91.58;101290.31;5101476;28;20027;-69
2023/11/16 00:09:39;;;;;;;1.65;1.27;;;;;;;3.81;91.76;101285.19;5102069;28;20031;-69
2023/11/16 00:12:06;;;;;;;1.73;1.52;;;;;;;3.83;91.86;101279.72;5067291;28;20066;-69
2023/11/16 00:14:32;;;;;;;1.77;1.60;;;;;;;3.71;92.67;101279.06;5101424;28;20059;-69
2023/11/16 00:17:00;;;;;;;2.13;1.75;;;;;;;3.84;92.09;101286.72;5096727;28;20427;-69
2023/11/16 00:19:26;;;;;;;2.25;1.77;;;;;;;3.65;93.26;101287.59;5097682;28;20020;-69
2023/11/16 00:21:52;;;;;;;2.03;1.80;;;;;;;3.67;92.27;101261.66;5100019;28;20078;-69
2023/11/16 00:24:18;;;;;;;1.75;1.55;;;;;;;3.81;92.22;101290.53;5100694;28;20028;-69
2023/11/16 00:26:50;;;;;;;3.67;1.70;;;;;;;3.86;92.92;101290.09;5100328;28;20035;-68
2023/11/16 00:29:16;;;;;;;2.08;1.60;;;;;;;3.73;92.83;101288.56;5083119;28;20055;-69
2023/11/16 00:31:41;;;;;;;2.53;1.80;;;;;;;3.57;94.55;101292.78;5082032;28;20099;-69
2023/11/16 00:34:07;;;;;;;1.92;1.60;;;;;;;3.95;92.16;101290.06;5099616;28;20719;-69
2023/11/16 00:36:33;;;;;;;1.90;1.67;;;;;;;3.60;93.52;101290.66;5099461;28;20039;-69
2023/11/16 00:38:58;;;;;;;2.03;1.45;;;;;;;3.50;93.03;101255.25;5098789;28;20498;-68
2023/11/16 00:41:27;;;;;;;2.35;1.63;;;;;;;3.63;93.31;101268.25;5100622;28;20056;-69
2023/11/16 00:43:53;;;;;;;1.73;1.52;;;;;;;3.43;94.48;101284.25;5099010;28;20024;-69
2023/11/16 00:46:18;;;;;;;3.03;2.05;;;;;;;3.56;94.14;101294.59;5099734;28;20073;-69
2023/11/16 00:48:45;;;;;;;2.60;1.88;;;;;;;3.56;93.51;101270.66;5099712;28;20032;-69
2023/11/16 00:51:12;;;;;;;2.72;1.60;;;;;;;3.72;92.92;101286.88;5100347;28;20016;-68
2023/11/16 00:53:44;;;;;;;2.25;2.05;;;;;;;3.61;92.55;101256.91;5098791;28;20042;-69
2023/11/16 00:56:10;;;;;;;2.67;1.90;;;;;;;3.54;92.96;101272.59;5100224;28;20093;-69
2023/11/16 00:58:38;;;;;;;3.33;2.17;;;;;;;3.92;92.35;101286.84;5099516;28;20078;-68
2023/11/16 01:01:06;;;;;;;2.72;1.98;;;;;;;3.61;92.78;101280.88;5100059;28;20155;-69
2023/11/16 01:03:33;;;;;;;2.88;1.77;;;;;;;3.68;92.59;101285.50;5101045;28;20036;-69
2023/11/16 01:05:58;;;;;;;2.20;1.73;;;;;;;3.50;94.12;101281.88;5100476;28;20031;-69
2023/11/16 01:08:26;;;;;;;1.55;1.40;;;;;;;3.51;93.01;101256.97;5100960;28;20028;-69
2023/11/16 01:10:51;;;;;;;2.38;1.58;;;;;;;3.53;92.63;101255.81;5100476;28;20069;-69
2023/11/16 01:13:23;;;;;;;1.83;1.60;;;;;;;3.41;93.55;101286.22;5098784;28;20032;-69
2023/11/16 01:15:50;;;;;;;2.08;1.80;;;;;;;3.60;93.22;101271.22;5100051;28;20034;-68
2023/11/16 01:18:16;;;;;;;2.67;1.67;;;;;;;3.58;93.30;101279.34;5094994;28;20089;-69
2023/11/16 01:20:42;;;;;;;1.63;1.45;;;;;;;3.82;92.98;101275.38;5097614;28;20036;-69
2023/11/16 01:23:16;;;;;;;2.20;1.65;;;;;;;3.91;91.67;101272.69;5102024;28;20051;-69
2023/11/16 01:25:51;;;;;;;1.95;1.50;;;;;;;3.95;90.73;101275.91;5099477;28;20028;-69
2023/11/16 01:28:17;;;;;;;2.83;1.60;;;;;;;3.73;90.93;101259.28;5082711;28;20032;-69
2023/11/16 01:30:43;;;;;;;2.75;1.70;;;;;;;3.85;91.48;101280.44;5081214;28;20032;-69
2023/11/16 01:33:08;;;;;;;1.60;1.50;;;;;;;3.70;91.29;101274.69;5098247;28;20074;-69
2023/11/16 01:35:39;;;;;;;2.28;1.70;;;;;;;3.68;92.44;101280.16;5100466;28;20091;-69
2023/11/16 01:38:05;;;;;;;2.00;1.73;;;;;;;3.84;92.38;101284.03;5098839;28;20035;-69
2023/11/16 01:40:32;;;;;;;2.70;1.90;;;;;;;3.87;91.39;101281.09;5096945;28;20051;-69
2023/11/16 01:42:58;;;;;;;2.03;1.65;;;;;;;3.80;91.35;101280.84;5092384;28;20545;-69
2023/11/16 01:45:30;;;;;;;2.25;1.52;;;;;;;3.93;90.92;101288.50;5092381;28;20063;-69
2023/11/16 01:48:03;;;;;;;2.35;2.10;;;;;;;3.82;91.56;101280.72;5099607;28;20024;-69
2023/11/16 01:50:31;;;;;;;2.03;1.60;;;;;;;4.10;90.22;101289.59;5099280;28;20392;-69
2023/11/16 01:53:03;;;;;;;2.22;1.90;;;;;;;4.03;90.36;101299.16;5098284;28;20095;-69
2023/11/16 01:55:36;;;;;;;2.88;2.10;;;;;;;3.58;91.62;101267.88;5099211;28;20032;-69
2023/11/16 01:58:05;;;;;;;3.50;2.22;;;;;;;3.78;91.70;101295.28;5082205;28;20052;-69
2023/11/16 02:00:45;;;;;;;3.10;2.50;;;;;;;3.63;93.11;101287.72;5082653;28;20032;-69
2023/11/16 02:03:11;;;;;;;3.38;2.47;;;;;;;3.40;94.98;101300.50;5099747;28;20085;-68
2023/11/16 02:05:37;;;;;;;3.92;2.70;;;;;;;3.41;94.78;101294.22;5101200;28;20020;-69
2023/11/16 02:08:09;;;;;;;4.53;2.80;;;;;;;3.67;93.75;101299.75;5105153;28;20410;-69
2023/11/16 02:10:38;;;;;;;3.55;2.70;;;;;;;3.72;92.90;101305.50;5103254;28;20043;-69
2023/11/16 02:13:14;;;;;;;5.63;2.70;;;;;;;3.62;93.85;101307.34;5102820;28;20460;-69
2023/11/16 02:15:39;;;;;;;4.22;2.83;;;;;;;3.74;92.12;101303.56;5109991;28;20027;-69
2023/11/16 02:18:05;;;;;;;4.25;2.50;;;;;;;3.61;93.13;101304.81;5103602;28;20024;-69
2023/11/16 02:20:31;;;;;;;5.20;2.97;;;;;;;3.58;92.97;101305.97;5102870;28;20091;-69
2023/11/16 02:23:02;;;;;;;4.53;2.88;;;;;;;3.59;92.52;101302.31;5107761;28;20027;-69
2023/11/16 02:25:29;;;;;;;3.72;2.67;;;;;;;3.42;94.63;101303.03;5103253;28;20088;-69
2023/11/16 02:27:55;;;;;;;3.28;2.50;;;;;;;3.46;93.42;101280.47;5102827;28;20114;-69
2023/11/16 02:30:20;;;;;;;3.22;2.22;;;;;;;3.55;93.47;101308.06;5103610;28;20040;-69
2023/11/16 02:32:46;;;;;;;2.72;2.25;;;;;;;3.55;93.85;101311.56;5104032;28;20040;-69
2023/11/16 02:35:12;;;;;;;5.53;2.35;;;;;;;3.59;93.61;101310.28;5098436;28;20040;-69
2023/11/16 02:37:38;;;;;;;2.80;2.40;;;;;;;3.50;93.56;101301.31;5101026;28;20546;-69
2023/11/16 02:40:04;;;;;;;2.25;2.05;;;;;;;3.51;93.79;101299.53;5101444;28;20509;-69
2023/11/16 02:42:29;;;;;;;2.42;1.98;;;;;;;3.41;93.94;101306.66;5103920;28;20024;-69
2023/11/16 02:44:57;;;;;;;3.45;1.83;;;;;;;3.30;94.26;101305.81;5102325;28;20379;-69
2023/11/16 02:47:28;;;;;;;2.00;1.80;;;;;;;3.36;94.15;101295.59;5086377;28;20028;-69
2023/11/16 02:49:54;;;;;;;3.28;1.83;;;;;;;3.38;93.50;101309.59;5104654;28;20028;-69
2023/11/16 02:52:19;;;;;;;1.70;1.50;;;;;;;3.60;92.90;101314.63;5102138;28;20410;-69
2023/11/16 02:54:44;;;;;;;2.72;1.60;;;;;;;3.33;94.10;101306.53;5102204;28;20040;-68
2023/11/16 02:57:10;;;;;;;1.33;1.20;;;;;;;3.16;95.36;101302.72;5101644;28;20024;-68
2023/11/16 02:59:35;;;;;;;2.78;1.90;;;;;;;3.27;94.98;101306.06;5102103;28;20052;-68
2023/11/16 03:02:07;;;;;;;1.80;1.65;;;;;;;3.34;94.47;101305.53;5102549;28;20043;-69
2023/11/16 03:04:33;;;;;;;2.20;1.55;;;;;;;3.49;93.47;101309.47;5103566;28;20028;-69
2023/11/16 03:06:59;;;;;;;1.90;1.27;;;;;;;3.36;94.12;101307.06;5103957;28;20034;-69
2023/11/16 03:09:24;;;;;;;2.10;1.58;;;;;;;3.26;95.31;101300.91;5103949;28;20092;-69
2023/11/16 03:11:50;;;;;;;1.70;1.60;;;;;;;3.45;93.64;101313.38;5104444;28;20035;-68
2023/11/16 03:14:15;;;;;;;1.80;1.50;;;;;;;3.37;94.28;101318.56;5102119;28;20090;-68
2023/11/16 03:16:48;;;;;;;1.90;1.55;;;;;;;3.43;93.24;101308.19;5102233;28;20036;-69
2023/11/16 03:19:13;;;;;;;2.05;1.50;;;;;;;3.35;94.04;101307.22;5102205;28;20028;-69
2023/11/16 03:21:39;;;;;;;1.88;1.33;;;;;;;3.33;94.25;101314.50;5102880;28;20046;-69
2023/11/16 03:24:05;;;;;;;1.50;1.40;;;;;;;3.32;95.07;101305.69;5103598;28;20038;-69
2023/11/16 03:26:30;;;;;;;1.50;1.27;;;;;;;3.21;94.19;101288.03;5103521;28;20038;-69
2023/11/16 03:28:57;;;;;;;2.03;1.50;;;;;;;3.46;93.90;101304.41;5070398;28;20024;-69
2023/11/16 03:31:23;;;;;;;1.65;1.50;;;;;;;3.37;94.15;101307.91;5098526;28;20028;-68
2023/11/16 03:33:49;;;;;;;1.30;1.20;;;;;;;3.21;94.24;101257.94;5101705;28;20040;-69
2023/11/16 03:36:14;;;;;;;2.80;1.20;;;;;;;3.36;94.86;101303.56;5101303;28;20027;-69
2023/11/16 03:38:39;;;;;;;1.88;1.40;;;;;;;3.29;94.99;101304.13;5102867;28;20032;-68
2023/11/16 03:41:06;;;;;;;2.15;1.50;;;;;;;3.42;94.94;101301.19;5107654;28;20096;-69
2023/11/16 03:43:31;;;;;;;4.43;1.23;;;;;;;3.36;93.93;101292.94;5104290;28;20024;-69
2023/11/16 03:45:57;;;;;;;1.48;1.20;;;;;;;3.44;94.44;101299.22;5102056;28;20112;-69
2023/11/16 03:48:23;;;;;;;2.13;1.08;;;;;;;3.55;94.20;101290.28;5068011;28;20058;-68
2023/11/16 03:50:48;;;;;;;1.10;0.90;;;;;;;3.48;93.55;101297.97;5103317;28;20087;-69
2023/11/16 03:53:14;;;;;;;1.20;1.02;;;;;;;3.75;93.48;101283.09;5102198;28;20044;-69
2023/11/16 03:55:39;;;;;;;1.70;1.05;;;;;;;3.66;92.37;101260.00;5083568;28;20109;-68
2023/11/16 03:58:05;;;;;;;1.30;1.20;;;;;;;3.88;92.02;101293.44;5100228;28;20081;-69
2023/11/16 04:00:31;;;;;;;2.35;1.05;;;;;;;3.67;92.99;101285.63;5100854;28;20454;-68
2023/11/16 04:02:58;;;;;;;1.10;1.00;;;;;;;3.52;93.90;101290.56;5102582;28;20028;-69
2023/11/16 04:05:26;;;;;;;1.20;0.90;;;;;;;3.57;93.77;101285.63;5101942;28;20105;-68
2023/11/16 04:07:53;;;;;;;1.52;1.20;;;;;;;3.75;93.23;101291.09;5101016;28;20073;-69
2023/11/16 04:10:19;;;;;;;1.35;1.02;;;;;;;3.81;93.72;101284.34;5100868;28;20058;-69
2023/11/16 04:12:44;;;;;;;1.42;1.05;;;;;;;3.77;93.21;101283.78;5101092;28;20039;-69
2023/11/16 04:15:13;;;;;;;1.58;1.20;;;;;;;3.68;93.58;101288.16;5084041;28;20036;-69
2023/11/16 04:17:43;;;;;;;1.45;1.27;;;;;;;3.51;94.60;101275.59;5100816;28;20050;-69
2023/11/16 04:20:09;;;;;;;1.00;0.90;;;;;;;3.58;94.50;101283.84;5102887;28;20020;-69
2023/11/16 04:22:38;;;;;;;1.10;0.90;;;;;;;3.75;94.23;101286.59;5101248;28;20502;-69
2023/11/16 04:25:11;;;;;;;2.05;1.10;;;;;;;3.67;93.72;101283.78;5101349;28;20027;-69
2023/11/16 04:27:37;;;;;;;1.40;1.05;;;;;;;3.38;94.45;101259.91;5102877;28;20382;-69
2023/11/16 04:30:06;;;;;;;1.75;1.63;;;;;;;3.65;94.78;101269.81;5100592;28;20032;-69
2023/11/16 04:32:32;;;;;;;1.67;1.10;;;;;;;3.69;93.90;101273.84;5101270;28;20028;-69
2023/11/16 04:34:58;;;;;;;1.73;1.25;;;;;;;3.85;93.58;101291.91;5101453;28;20027;-68
2023/11/16 04:37:23;;;;;;;1.55;1.35;;;;;;;3.79;93.23;101287.16;5100629;28;20046;-69
2023/11/16 04:39:49;;;;;;;1.50;1.30;;;;;;;3.63;93.39;101250.47;5083677;28;20048;-69
2023/11/16 04:42:14;;;;;;;1.52;1.33;;;;;;;3.80;93.17;101269.34;5100436;28;20032;-69
2023/11/16 04:44:44;;;;;;;1.30;1.20;;;;;;;4.00;92.47;101284.28;5101725;28;20058;-69
2023/11/16 04:47:10;;;;;;;1.70;1.30;;;;;;;3.99;91.61;101288.78;5099727;28;20395;-69
2023/11/16 04:49:35;;;;;;;1.88;1.30;;;;;;;4.02;91.54;101282.34;5099981;28;20038;-69
2023/11/16 04:52:01;;;;;;;1.67;1.40;;;;;;;4.09;92.25;101290.59;5100579;28;20020;-69
2023/11/16 04:54:26;;;;;;;1.70;1.60;;;;;;;4.28;90.83;101295.00;5098565;28;20226;-69
2023/11/16 04:56:52;;;;;;;1.30;1.20;;;;;;;3.99;91.04;101285.28;5096248;28;20403;-70
2023/11/16 04:59:17;;;;;;;3.53;1.42;;;;;;;4.07;91.65;101295.19;5099309;28;20043;-69
2023/11/16 05:01:43;;;;;;;1.88;1.50;;;;;;;3.93;91.46;101288.50;5100839;28;20636;-69
2023/11/16 05:04:08;;;;;;;2.08;1.15;;;;;;;3.80;91.78;101258.69;5100614;28;20111;-69
2023/11/16 05:06:39;;;;;;;1.85;1.58;;;;;;;4.41;90.42;101279.53;5095854;28;20047;-69
2023/11/16 05:09:04;;;;;;;1.70;1.60;;;;;;;4.29;90.86;101283.34;5096694;28;20088;-69
2023/11/16 05:11:30;;;;;;;2.15;1.42;;;;;;;4.11;90.80;101285.97;5102940;28;20047;-69
2023/11/16 05:13:55;;;;;;;1.92;1.40;;;;;;;4.13;91.30;101291.97;5103284;28;20028;-69
2023/11/16 05:16:22;;;;;;;1.80;1.58;;;;;;;3.92;93.30;101289.50;5102531;28;20121;-68
2023/11/16 05:18:47;;;;;;;2.10;1.58;;;;;;;4.01;92.20;101291.31;5101799;28;20028;-68
2023/11/16 05:21:13;;;;;;;1.52;1.40;;;;;;;4.04;92.24;101291.03;5101358;28;20054;-69
2023/11/16 05:23:38;;;;;;;1.77;1.50;;;;;;;3.98;92.98;101296.94;5085133;28;20479;-66
2023/11/16 05:26:07;;;;;;;1.98;1.38;;;;;;;3.87;93.56;101276.63;5083915;28;20032;-67
2023/11/16 05:28:33;;;;;;;1.95;1.70;;;;;;;3.87;94.65;101291.75;5102992;28;20028;-67
2023/11/16 05:30:58;;;;;;;2.58;1.77;;;;;;;3.92;93.85;101292.19;5101170;28;20020;-67
2023/11/16 05:33:24;;;;;;;2.47;2.00;;;;;;;3.92;94.45;101289.50;5101857;28;20024;-68
2023/11/16 05:35:51;;;;;;;1.95;1.67;;;;;;;4.02;93.71;101295.66;5103562;28;20053;-69
2023/11/16 05:38:17;;;;;;;2.30;1.95;;;;;;;4.09;93.35;101294.09;5101170;28;20036;-70
2023/11/16 05:40:44;;;;;;;2.40;1.95;;;;;;;4.09;93.89;101295.91;5103679;28;20489;-69
2023/11/16 05:43:10;;;;;;;2.03;1.80;;;;;;;3.89;94.69;101289.78;5106587;28;20023;-69
2023/11/16 05:45:39;;;;;;;2.08;1.85;;;;;;;3.68;94.85;101266.88;5107416;28;20517;-69
2023/11/16 05:48:07;;;;;;;2.05;1.85;;;;;;;3.98;95.01;101305.75;5085127;28;20123;-68
2023/11/16 05:50:34;;;;;;;2.10;1.90;;;;;;;4.20;93.93;101303.72;5102102;28;20360;-68
2023/11/16 05:52:59;;;;;;;2.38;2.08;;;;;;;4.15;93.76;101303.31;5098703;28;20047;-69
2023/11/16 05:55:26;;;;;;;4.15;2.50;;;;;;;4.05;94.37;101300.69;5089826;28;20032;-69
2023/11/16 05:57:52;;;;;;;2.65;2.40;;;;;;;4.17;94.00;101299.53;5107577;28;20419;-69
2023/11/16 06:00:17;;;;;;;2.67;2.20;;;;;;;4.22;93.11;101294.59;5106340;28;20028;-70
2023/11/16 06:02:42;;;;;;;2.50;2.25;;;;;;;4.14;94.21;101299.81;5104329;28;20032;-70
2023/11/16 06:05:09;;;;;;;2.40;1.92;;;;;;;4.20;93.15;101299.22;5084496;28;20072;-70
2023/11/16 06:07:37;;;;;;;5.38;2.22;;;;;;;3.98;94.58;101283.63;5101165;28;20077;-69
2023/11/16 06:10:05;;;;;;;3.15;2.35;;;;;;;3.91;96.04;101301.16;5108873;28;20036;-68
2023/11/16 06:12:30;;;;;;;2.78;2.58;;;;;;;4.05;95.26;101281.22;5111785;28;20043;-69
2023/11/16 06:14:56;;;;;;;3.00;2.53;;;;;;;3.93;95.37;101264.56;5108934;28;20024;-68
2023/11/16 06:17:24;;;;;;;3.08;2.55;;;;;;;3.90;96.02;101288.81;5108403;28;20028;-69
2023/11/16 06:19:50;;;;;;;2.63;2.28;;;;;;;3.90;95.68;101281.66;5108385;28;20036;-70
2023/11/16 06:22:16;;;;;;;3.10;2.50;;;;;;;4.12;94.92;101288.47;5108845;28;20043;-69
2023/11/16 06:24:41;;;;;;;2.53;2.33;;;;;;;3.81;96.08;101282.53;5107327;28;20028;-69
2023/11/16 06:27:07;;;;;;;2.80;2.22;;;;;;;3.98;96.27;101294.25;5107413;28;20032;-69
2023/11/16 06:29:33;;;;;;;3.22;2.58;;;;;;;3.81;96.85;101293.19;5107635;28;20380;-70
2023/11/16 06:31:58;;;;;;;3.10;2.38;;;;;;;3.87;96.13;101284.59;5109160;28;20055;-70
2023/11/16 06:34:24;;;;;;;5.53;2.58;;;;;;;4.12;95.67;101303.63;5109893;28;20028;-69
2023/11/16 06:36:49;;;;;;;5.05;2.60;;;;;;;4.04;95.90;101296.34;5109734;28;20020;-68
2023/11/16 06:39:15;;;;;;;3.53;2.60;;;;;;;4.08;95.79;101300.41;5108308;28;20138;-68
2023/11/16 06:41:41;;;;;;;3.33;2.55;;;;;;;4.16;95.23;101291.69;5105645;28;20051;-68
2023/11/16 06:44:07;;;;;;;3.97;2.65;;;;;;;4.03;96.06;101299.16;5104870;28;20028;-67
2023/11/16 06:46:34;;;;;;;3.00;2.60;;;;;;;4.11;95.29;101289.47;5104478;28;20075;-69
2023/11/16 06:49:01;;;;;;;3.95;2.70;;;;;;;4.13;95.43;101300.78;5086885;28;20108;-68
2023/11/16 06:51:28;;;;;;;3.35;2.30;;;;;;;4.24;95.42;101297.13;5105473;28;20035;-69
2023/11/16 06:53:53;;;;;;;2.90;2.13;;;;;;;4.08;94.54;101305.72;5105240;28;20032;-68
2023/11/16 06:56:19;;;;;;;3.63;1.92;;;;;;;4.01;95.67;101296.63;5103143;28;20038;-68
2023/11/16 06:58:45;;;;;;;2.60;1.88;;;;;;;4.14;94.24;101294.50;5104022;28;20051;-69
2023/11/16 07:01:10;;;;;;;2.85;2.10;;;;;;;4.38;92.97;101298.47;5103823;28;20025;-69
2023/11/16 07:03:36;;;;;;;2.08;1.63;;;;;;;4.43;92.62;101298.84;5104588;28;20020;-68
2023/11/16 07:06:02;;;;;;;4.38;1.60;;;;;;;4.22;91.56;101299.94;5107990;28;20019;-69
2023/11/16 07:08:27;;;;;;;1.83;1.55;;;;;;;4.19;92.33;101297.53;5111076;28;20024;-68
2023/11/16 07:10:53;;;;;;;1.70;1.40;;;;;;;4.19;91.54;101300.22;5108457;28;20040;-69
2023/11/16 07:13:20;;;;;;;2.28;1.50;;;;;;;4.32;91.12;101307.06;5107362;28;20028;-69
2023/11/16 07:15:50;;;;;;;2.28;1.42;;;;;;;4.20;91.87;101301.03;5108222;28;20051;-69
2023/11/16 07:18:19;;;;;;;1.60;1.40;;;;;;;4.39;91.32;101308.97;5107389;28;20044;-69
2023/11/16 07:20:48;;;;;;;3.35;1.40;;;;;;;4.21;91.73;101308.06;5106765;28;20086;-70
2023/11/16 07:23:14;;;;;;;2.40;1.40;;;;;;;4.43;91.13;101322.84;5108369;28;20055;-69
2023/11/16 07:25:43;;;;;;;1.67;1.48;;;;;;;4.57;89.96;101322.38;5107792;28;20051;-69
2023/11/16 07:28:08;;;;;;;2.28;1.40;;;;;;;4.55;89.17;101321.69;5108052;28;20093;-69
2023/11/16 07:30:35;;;;;;;2.35;1.70;;;;;;;4.51;88.47;101290.97;5107617;28;20079;-69
2023/11/16 07:33:04;;;;;;;1.85;1.50;;;;;;;4.68;87.96;101300.84;5092243;28;20036;-69
2023/11/16 07:35:29;;;;;;;2.42;1.40;;;;;;;4.75;88.20;101325.09;5107901;28;20083;-69
2023/11/16 07:37:58;;;;;;;1.48;1.38;;;;;;;4.55;88.71;101319.00;5072761;28;20051;-70
2023/11/16 07:40:24;;;;;;;2.22;1.45;;;;;;;4.34;89.39;101313.91;5107862;28;20111;-68
2023/11/16 07:42:49;;;;;;;1.48;1.38;;;;;;;4.09;90.13;101282.59;5107990;28;20039;-70
2023/11/16 07:45:17;;;;;;;1.92;1.38;;;;;;;4.41;90.61;101324.81;5109164;28;20412;-70
2023/11/16 07:47:44;;;;;;;1.65;1.55;;;;;;;4.33;89.37;101292.72;5108842;28;20051;-70
2023/11/16 07:50:13;;;;;;;3.05;1.50;;;;;;;4.29;90.25;101323.31;5108550;28;20035;-70
2023/11/16 07:52:47;;;;;;;1.77;1.45;;;;;;;4.29;90.63;101326.81;5104707;28;20109;-70
2023/11/16 07:55:18;;;;;;;3.17;1.80;;;;;;;4.41;90.73;101340.81;5105563;28;20132;-70
2023/11/16 07:57:47;;;;;;;2.08;1.67;;;;;;;4.18;90.11;101303.88;5106342;28;20139;-69
2023/11/16 08:00:26;;;;;;;2.03;1.60;;;;;;;4.74;88.82;101343.91;5107639;28;20087;-69
2023/11/16 08:05:42;;;;;;;2.00;1.70;;;;;;;4.70;89.06;101346.88;5088598;28;20039;-70
2023/11/16 08:08:11;;;;;;;2.88;1.85;;;;;;;4.67;89.17;101335.66;5086992;28;20075;-69
2023/11/16 08:10:38;;;;;;;1.88;1.50;;;;;;;4.94;88.60;101342.81;5081755;28;20096;-69
2023/11/16 08:13:05;;;;;;;2.05;1.80;;;;;;;4.79;88.50;101344.28;5074838;28;20028;-70
2023/11/16 08:15:32;;;;;;;2.30;1.88;;;;;;;4.79;88.48;101336.28;5083597;28;20120;-70
2023/11/16 08:17:58;;;;;;;3.53;1.88;;;;;;;4.60;89.80;101340.75;5084455;28;20036;-71
2023/11/16 08:20:24;;;;;;;2.55;1.60;;;;;;;4.79;88.50;101339.78;5084544;28;20108;-69
2023/11/16 08:22:53;;;;;;;1.73;1.60;;;;;;;4.57;89.11;101351.69;5083865;28;20120;-70
2023/11/16 08:25:22;;;;;;;1.73;1.35;;;;;;;4.55;89.39;101359.00;5095144;28;20025;-70
2023/11/16 08:27:49;;;;;;;2.50;1.60;;;;;;;4.38;89.91;101341.09;5083957;28;20392;-70
2023/11/16 08:30:16;;;;;;;1.70;1.42;;;;;;;4.61;89.36;101352.25;5083375;28;20075;-70
2023/11/16 08:32:42;;;;;;;2.15;1.70;;;;;;;4.61;89.56;101345.06;5078595;28;20020;-69
2023/11/16 08:35:08;;;;;;;2.03;1.48;;;;;;;4.82;88.29;101333.34;5083606;28;20024;-70
2023/11/16 08:37:33;;;;;;;1.73;1.50;;;;;;;4.42;88.99;101337.16;5083729;28;20028;-70
2023/11/16 08:39:59;;;;;;;2.45;1.50;;;;;;;4.63;89.35;101347.59;5086068;28;20032;-71
2023/11/16 08:42:24;;;;;;;2.00;1.50;;;;;;;4.58;89.39;101336.53;5087070;28;20056;-70
2023/11/16 08:44:51;;;;;;;1.88;1.45;;;;;;;4.29;89.61;101326.00;5085236;28;20051;-69
2023/11/16 08:47:18;;;;;;;1.85;1.40;;;;;;;4.33;90.07;101327.38;5084516;28;20032;-70
2023/11/16 08:49:45;;;;;;;1.80;1.60;;;;;;;4.57;88.95;101342.84;5085827;28;20029;-69
2023/11/16 08:52:14;;;;;;;2.17;1.48;;;;;;;4.45;89.35;101348.38;5086915;28;20063;-69
2023/11/16 08:54:41;;;;;;;1.60;1.50;;;;;;;4.14;89.89;101325.59;5086439;28;20032;-70
2023/11/16 08:57:08;;;;;;;2.83;1.50;;;;;;;4.40;89.63;101345.31;5103247;28;20119;-70
2023/11/16 08:59:35;;;;;;;1.88;1.65;;;;;;;4.41;89.54;101359.47;5086051;28;20052;-69
2023/11/16 09:02:02;;;;;;;1.50;1.40;;;;;;;4.53;88.60;101339.63;5083470;28;20040;-69
2023/11/16 09:04:28;;;;;;;2.03;1.42;;;;;;;4.48;88.51;101348.06;5083217;28;20092;-69
2023/11/16 09:06:54;;;;;;;3.17;1.50;;;;;;;4.75;87.42;101353.56;5078340;28;20047;-67
2023/11/16 09:09:38;;;;;;;1.95;1.58;;;;;;;4.66;87.46;101350.78;5072537;28;20029;-69
2023/11/16 09:12:05;;;;;;;1.63;1.40;;;;;;;4.67;87.52;101360.50;5081293;28;20036;-68
2023/11/16 09:14:34;;;;;;;1.80;1.45;;;;;;;4.81;86.61;101356.50;5082083;28;20029;-70
2023/11/16 09:17:02;;;;;;;2.15;1.60;;;;;;;4.48;87.50;101361.41;5090285;28;20097;-68
2023/11/16 09:19:28;;;;;;;2.53;1.50;;;;;;;4.31;88.39;101330.19;5091120;28;20009;-69
2023/11/16 09:21:54;;;;;;;1.80;1.50;;;;;;;4.47;88.23;101334.91;5090488;28;20039;-70
2023/11/16 09:24:21;;;;;;;1.50;1.38;;;;;;;4.66;87.38;101371.28;5083814;28;20032;-70
2023/11/16 09:26:48;;;;;;;1.70;1.30;;;;;;;4.44;88.37;101354.69;5067098;28;20059;-70
2023/11/16 09:29:18;;;;;;;1.67;1.50;;;;;;;4.61;88.13;101368.22;5086752;28;20056;-70
2023/11/16 09:31:44;;;;;;;3.30;1.30;;;;;;;4.57;88.24;101367.69;5102050;28;20027;-70
2023/11/16 09:34:10;;;;;;;1.63;1.40;;;;;;;4.60;87.81;101363.88;5085457;28;20028;-70
2023/11/16 09:36:37;;;;;;;2.70;1.40;;;;;;;4.58;88.20;101364.03;5067461;28;20059;-71
2023/11/16 09:39:07;;;;;;;1.60;1.20;;;;;;;4.39;89.05;101362.25;5084923;28;20021;-70
2023/11/16 09:41:36;;;;;;;1.83;1.42;;;;;;;4.51;87.98;101330.97;5083389;28;20028;-70
2023/11/16 09:44:06;;;;;;;2.45;1.35;;;;;;;4.71;87.52;101364.53;5082583;28;20032;-71
2023/11/16 09:46:32;;;;;;;2.33;1.48;;;;;;;4.65;87.34;101365.13;5084557;28;20020;-70
2023/11/16 09:49:05;;;;;;;2.03;1.45;;;;;;;4.64;87.94;101350.13;5088167;28;20483;-70
2023/11/16 09:51:34;;;;;;;2.00;1.70;;;;;;;4.82;86.15;101336.00;5102305;28;20505;-70
2023/11/16 09:54:01;;;;;;;1.67;1.50;;;;;;;4.80;87.90;101356.63;5085312;28;20044;-69
2023/11/16 09:56:30;;;;;;;1.83;1.40;;;;;;;4.61;87.71;101333.59;5093808;28;20031;-69
2023/11/16 09:59:06;;;;;;;2.00;1.55;;;;;;;4.84;87.58;101353.53;5101402;28;20044;-70
2023/11/16 10:01:37;;;;;;;1.85;1.50;;;;;;;4.99;86.63;101345.03;5105317;28;20024;-70
2023/11/16 10:04:05;;;;;;;2.00;1.55;;;;;;;4.84;87.45;101344.69;5104772;28;20024;-70
2023/11/16 10:06:33;;;;;;;3.58;1.67;;;;;;;4.74;87.57;101339.41;5104415;28;20041;-70
2023/11/16 10:09:03;;;;;;;2.22;1.40;;;;;;;4.81;87.75;101348.50;5103553;28;20055;-69
2023/11/16 10:11:31;;;;;;;1.60;1.50;;;;;;;4.81;88.58;101345.81;5103764;28;20020;-70
2023/11/16 10:13:56;;;;;;;1.80;1.48;;;;;;;4.69;88.52;101333.66;5103957;28;20032;-69
2023/11/16 10:16:26;;;;;;;2.35;1.50;;;;;;;4.79;89.10;101342.47;5103498;28;20035;-70
2023/11/16 10:19:10;;;;;;;1.70;1.50;;;;;;;4.58;89.11;101324.03;5103562;28;20024;-69
2023/11/16 10:21:39;;;;;;;1.83;1.60;;;;;;;4.65;89.26;101341.13;5102667;28;20024;-69
2023/11/16 10:24:09;;;;;;;1.42;1.33;;;;;;;4.87;89.01;101344.41;5086274;28;20032;-70
2023/11/16 10:26:35;;;;;;;2.15;1.70;;;;;;;4.91;88.07;101343.13;5105852;28;20032;-69
2023/11/16 10:29:01;;;;;;;2.13;1.50;;;;;;;4.51;89.73;101333.63;5108845;28;20039;-70
2023/11/16 10:31:32;;;;;;;2.97;1.60;;;;;;;4.81;89.82;101331.66;5099747;28;20024;-69
2023/11/16 10:33:58;;;;;;;2.10;1.50;;;;;;;4.70;88.92;101340.66;5101061;28;20052;-70
2023/11/16 10:36:26;;;;;;;2.45;1.60;;;;;;;4.84;88.41;101331.38;5106505;28;20035;-70
2023/11/16 10:38:52;;;;;;;2.38;1.70;;;;;;;4.71;89.19;101339.72;5106155;28;20031;-69
2023/11/16 10:41:19;;;;;;;1.70;1.30;;;;;;;4.68;89.22;101343.50;5109078;28;20016;-69
2023/11/16 10:43:52;;;;;;;2.20;1.52;;;;;;;4.76;89.46;101342.75;5109242;28;20383;-69
2023/11/16 10:46:19;;;;;;;1.65;1.55;;;;;;;4.66;89.61;101337.47;5107548;28;20055;-70
2023/11/16 10:48:44;;;;;;;3.10;1.90;;;;;;;4.51;90.77;101317.63;5106434;28;20032;-69
2023/11/16 10:51:11;;;;;;;2.28;1.73;;;;;;;4.57;90.76;101319.72;5088697;28;20387;-71
2023/11/16 10:53:38;;;;;;;2.15;1.80;;;;;;;4.77;89.76;101325.78;5106188;28;20489;-70
2023/11/16 10:56:08;;;;;;;3.47;2.17;;;;;;;4.77;89.18;101314.25;5106120;28;20059;-71
2023/11/16 10:58:39;;;;;;;2.85;2.20;;;;;;;4.77;88.97;101290.25;5103128;28;20131;-71
2023/11/16 11:01:10;;;;;;;2.40;1.80;;;;;;;4.79;89.08;101325.63;5101522;28;20111;-71
2023/11/16 11:03:37;;;;;;;2.08;1.88;;;;;;;4.90;88.46;101317.41;5100967;28;20024;-71
2023/11/16 11:06:04;;;;;;;2.90;1.88;;;;;;;4.92;88.56;101312.78;5099675;28;20031;-71
2023/11/16 11:08:38;;;;;;;2.33;2.00;;;;;;;4.70;89.71;101296.22;5101096;28;20103;-71
2023/11/16 11:11:04;;;;;;;2.25;1.80;;;;;;;4.97;88.78;101309.66;5101301;28;20024;-71
2023/11/16 11:13:32;;;;;;;2.20;1.77;;;;;;;4.88;88.06;101292.75;5105023;28;20032;-71
2023/11/16 11:16:05;;;;;;;2.47;1.98;;;;;;;5.13;88.14;101301.81;5107601;28;20032;-68
2023/11/16 11:18:31;;;;;;;2.70;1.95;;;;;;;4.88;88.28;101290.06;5106941;28;20024;-69
2023/11/16 11:21:10;;;;;;;2.92;2.40;;;;;;;4.79;88.85;101298.97;5103431;28;20031;-70
2023/11/16 11:23:40;;;;;;;3.55;2.13;;;;;;;5.02;88.34;101302.88;5102076;28;20016;-70
2023/11/16 11:26:06;;;;;;;3.28;2.17;;;;;;;4.96;87.88;101303.47;5101141;28;20032;-70
2023/11/16 11:28:38;;;;;;;4.90;2.20;;;;;;;4.88;88.44;101316.75;5076533;28;20093;-70
2023/11/16 11:31:10;;;;;;;5.63;2.50;;;;;;;4.95;89.00;101307.16;5100661;28;20052;-67
2023/11/16 11:33:43;;;;;;;3.55;2.47;;;;;;;4.96;88.43;101314.16;5082847;28;20032;-66
2023/11/16 11:36:10;;;;;;;3.20;2.38;;;;;;;4.77;88.84;101293.78;5082431;28;20036;-67
2023/11/16 11:38:38;;;;;;;2.90;2.45;;;;;;;4.79;89.15;101328.28;5100276;28;20380;-70